createdAt,value
2019-02-25T00:01:42.249Z,49.67
2019-02-25T00:04:12.985Z,46.50
2019-02-25T00:06:43.983Z,42.53
2019-02-25T00:09:14.768Z,45.57
2019-02-25T00:11:45.607Z,43.67
2019-02-25T00:14:16.671Z,46.07
2019-02-25T00:16:47.528Z,50.23
2019-02-25T00:19:18.395Z,44.97
2019-02-25T00:21:48.845Z,42.40
2019-02-25T00:24:19.652Z,44.17
2019-02-25T00:26:50.162Z,36.03
2019-02-25T00:29:29.909Z,39.47
2019-02-25T00:32:00.706Z,43.27
2019-02-25T00:34:31.468Z,43.73
2019-02-25T00:37:02.407Z,40.07
2019-02-25T00:39:33.248Z,45.43
2019-02-25T00:42:03.838Z,50.10
2019-02-25T00:44:34.508Z,50.00
2019-02-25T00:47:05.001Z,48.77
2019-02-25T00:49:36.107Z,43.50
2019-02-25T00:52:06.702Z,45.37
2019-02-25T00:54:44.813Z,46.03
2019-02-25T00:57:15.912Z,43.27
2019-02-25T00:59:46.716Z,43.57
2019-02-25T01:02:17.862Z,43.13
2019-02-25T01:04:48.420Z,38.37
2019-02-25T01:07:19.140Z,40.00
2019-02-25T01:09:49.597Z,43.63
2019-02-25T01:12:20.623Z,40.03
2019-02-25T01:14:51.174Z,40.97
2019-02-25T01:17:21.941Z,38.83
2019-02-25T01:19:52.518Z,40.03
2019-02-25T01:22:23.322Z,40.50
2019-02-25T01:24:54.019Z,38.30
2019-02-25T01:27:24.601Z,36.43
2019-02-25T01:29:55.183Z,45.30
2019-02-25T01:32:25.957Z,40.23
2019-02-25T01:34:56.473Z,40.50
2019-02-25T01:37:27.485Z,43.17
2019-02-25T01:39:58.046Z,45.60
2019-02-25T01:42:28.993Z,42.67
2019-02-25T01:45:00.475Z,40.87
2019-02-25T01:47:31.183Z,39.80
2019-02-25T01:50:01.843Z,39.47
2019-02-25T01:52:32.555Z,36.40
2019-02-25T01:55:03.280Z,42.70
2019-02-25T01:57:33.889Z,36.03
2019-02-25T02:00:04.940Z,40.33
2019-02-25T02:02:35.460Z,38.00
2019-02-25T02:05:06.420Z,35.83
2019-02-25T02:07:36.944Z,39.17
2019-02-25T02:10:09.169Z,36.83
2019-02-25T02:12:40.231Z,37.90
2019-02-25T02:15:13.594Z,38.20
2019-02-25T02:17:44.456Z,38.93
2019-02-25T02:20:15.687Z,35.50
2019-02-25T02:22:46.634Z,38.13
2019-02-25T02:25:17.439Z,37.47
2019-02-25T02:27:48.266Z,35.90
2019-02-25T02:30:19.426Z,40.53
2019-02-25T02:32:50.163Z,35.33
2019-02-25T02:35:21.094Z,36.40
2019-02-25T02:37:51.848Z,38.40
2019-02-25T02:40:22.410Z,35.87
2019-02-25T02:42:54.495Z,35.10
2019-02-25T02:45:29.313Z,36.17
2019-02-25T02:48:09.369Z,34.70
2019-02-25T02:50:40.673Z,33.87
2019-02-25T02:53:11.215Z,34.43
2019-02-25T02:55:41.733Z,39.83
2019-02-25T02:58:12.370Z,30.43
2019-02-25T03:00:42.952Z,36.23
2019-02-25T03:03:13.583Z,32.43
2019-02-25T03:05:44.519Z,32.53
2019-02-25T03:08:16.459Z,31.87
2019-02-25T03:10:47.483Z,34.47
2019-02-25T03:13:18.237Z,33.10
2019-02-25T03:15:49.045Z,35.00
2019-02-25T03:18:20.037Z,36.93
2019-02-25T03:20:50.717Z,36.33
2019-02-25T03:23:21.677Z,35.07
2019-02-25T03:25:52.240Z,30.97
2019-02-25T03:28:23.240Z,35.93
2019-02-25T03:30:53.864Z,35.40
2019-02-25T03:33:24.417Z,34.70
2019-02-25T03:35:54.957Z,35.93
2019-02-25T03:38:25.910Z,36.57
2019-02-25T03:40:56.718Z,32.97
2019-02-25T03:43:27.629Z,34.77
2019-02-25T03:45:58.420Z,37.90
2019-02-25T03:48:29.512Z,33.90
2019-02-25T03:51:00.186Z,36.43
2019-02-25T03:53:30.824Z,41.20
2019-02-25T03:56:01.419Z,37.00
2019-02-25T03:58:32.117Z,33.73
2019-02-25T04:01:02.608Z,36.50
2019-02-25T04:03:33.482Z,33.57
2019-02-25T04:06:04.363Z,35.20
2019-02-25T04:08:34.936Z,38.83
2019-02-25T04:11:05.507Z,36.93
2019-02-25T04:13:36.138Z,34.30
2019-02-25T04:16:06.721Z,34.60
2019-02-25T04:18:37.658Z,38.13
2019-02-25T04:21:08.466Z,33.47
2019-02-25T04:23:38.938Z,36.77
2019-02-25T04:26:09.501Z,34.80
2019-02-25T04:28:40.292Z,30.83
2019-02-25T04:31:11.105Z,36.30
2019-02-25T04:33:41.662Z,35.03
2019-02-25T04:36:12.213Z,30.87
2019-02-25T04:38:43.215Z,33.10
2019-02-25T04:41:14.181Z,35.90
2019-02-25T04:43:45.331Z,33.07
2019-02-25T04:46:16.019Z,34.70
2019-02-25T04:48:46.767Z,35.27
2019-02-25T04:51:17.627Z,33.83
2019-02-25T04:53:48.637Z,34.73
2019-02-25T04:56:20.224Z,31.10
2019-02-25T04:58:51.002Z,34.03
2019-02-25T05:01:21.591Z,39.60
2019-02-25T05:03:52.066Z,35.67
2019-02-25T05:06:22.978Z,32.00
2019-02-25T05:08:53.915Z,36.63
2019-02-25T05:11:29.198Z,31.33
2019-02-25T05:13:59.838Z,27.83
2019-02-25T05:16:30.539Z,33.80
2019-02-25T05:19:01.302Z,33.77
2019-02-25T05:21:32.206Z,36.63
2019-02-25T05:24:02.877Z,33.20
2019-02-25T05:26:33.639Z,35.97
2019-02-25T05:29:04.871Z,31.93
2019-02-25T05:31:35.688Z,35.80
2019-02-25T05:34:06.487Z,36.40
2019-02-25T05:36:37.143Z,30.97
2019-02-25T05:39:08.342Z,37.10
2019-02-25T05:41:39.692Z,32.17
2019-02-25T05:44:10.769Z,30.23
2019-02-25T05:46:41.430Z,34.03
2019-02-25T05:49:12.040Z,32.90
2019-02-25T05:51:42.954Z,30.17
2019-02-25T05:54:13.623Z,38.03
2019-02-25T05:56:44.478Z,40.40
2019-02-25T05:59:15.270Z,35.17
2019-02-25T06:01:46.054Z,33.97
2019-02-25T06:04:16.907Z,37.73
2019-02-25T06:06:47.543Z,33.83
2019-02-25T06:09:18.521Z,35.57
2019-02-25T06:11:49.401Z,39.63
2019-02-25T06:14:20.747Z,40.03
2019-02-25T06:16:51.469Z,33.43
2019-02-25T06:19:22.125Z,33.27
2019-02-25T06:21:52.865Z,38.97
2019-02-25T06:24:23.595Z,35.50
2019-02-25T06:26:54.628Z,35.33
2019-02-25T06:29:25.439Z,38.03
2019-02-25T06:31:55.906Z,40.10
2019-02-25T06:34:27.150Z,36.07
2019-02-25T06:36:57.753Z,37.30
2019-02-25T06:39:28.361Z,39.27
2019-02-25T06:41:59.503Z,39.03
2019-02-25T06:44:30.965Z,39.57
2019-02-25T06:47:02.263Z,36.77
2019-02-25T06:49:33.341Z,37.43
2019-02-25T06:52:47.430Z,37.93
2019-02-25T06:55:18.477Z,35.33
2019-02-25T06:57:49.063Z,40.97
2019-02-25T07:00:19.766Z,37.67
2019-02-25T07:02:50.338Z,39.73
2019-02-25T07:05:38.884Z,46.80
2019-02-25T07:08:15.490Z,39.60
2019-02-25T07:11:08.222Z,45.20
2019-02-25T07:14:03.602Z,39.03
2019-02-25T07:16:53.200Z,29.90
2019-02-25T07:19:54.785Z,37.53
2019-02-25T07:22:53.743Z,34.63
2019-02-25T07:25:46.871Z,35.17
2019-02-25T07:28:48.362Z,46.13
2019-02-25T07:31:56.497Z,35.80
2019-02-25T07:34:39.938Z,41.90
2019-02-25T07:37:28.314Z,36.27
2019-02-25T07:40:20.763Z,35.30
2019-02-25T07:43:11.835Z,39.33
2019-02-25T07:45:49.392Z,34.50
2019-02-25T07:48:57.278Z,37.47
2019-02-25T07:51:38.933Z,34.40
2019-02-25T07:54:27.383Z,40.67
2019-02-25T07:57:20.333Z,42.60
2019-02-25T08:00:12.827Z,37.10
2019-02-25T08:03:08.401Z,38.20
2019-02-25T08:06:04.280Z,37.67
2019-02-25T08:08:57.323Z,43.60
2019-02-25T08:11:46.793Z,45.03
2019-02-25T08:14:34.935Z,53.00
2019-02-25T08:17:36.639Z,43.27
2019-02-25T08:20:21.233Z,46.03
2019-02-25T08:23:08.075Z,43.93
2019-02-25T08:25:58.395Z,40.47
2019-02-25T08:29:00.398Z,48.37
2019-02-25T08:31:50.015Z,41.13
2019-02-25T08:34:54.961Z,44.37
2019-02-25T08:37:42.866Z,39.17
2019-02-25T08:40:42.186Z,39.37
2019-02-25T08:43:42.066Z,40.20
2019-02-25T08:46:31.733Z,41.50
2019-02-25T08:49:09.563Z,43.70
2019-02-25T08:51:40.482Z,41.70
2019-02-25T08:54:11.206Z,42.87
2019-02-25T08:56:41.984Z,43.87
2019-02-25T08:59:12.778Z,39.97
2019-02-25T09:01:43.569Z,40.17
2019-02-25T09:04:14.538Z,40.07
2019-02-25T09:06:45.082Z,43.77
2019-02-25T09:09:15.799Z,38.87
2019-02-25T09:11:46.373Z,38.47
2019-02-25T09:14:17.313Z,39.17
2019-02-25T09:16:48.277Z,42.73
2019-02-25T09:19:18.762Z,42.77
2019-02-25T09:21:49.351Z,50.90
2019-02-25T09:24:20.037Z,36.10
2019-02-25T09:26:50.817Z,43.00
2019-02-25T09:29:21.535Z,38.57
2019-02-25T09:31:52.299Z,38.27
2019-02-25T09:34:22.887Z,41.67
2019-02-25T09:36:53.917Z,42.07
2019-02-25T09:39:24.423Z,39.33
2019-02-25T09:41:55.613Z,40.73
2019-02-25T09:44:26.579Z,44.33
2019-02-25T09:46:56.980Z,39.57
2019-02-25T09:49:27.652Z,43.80
2019-02-25T09:51:58.457Z,48.00
2019-02-25T09:54:29.045Z,40.37
2019-02-25T09:57:00.204Z,53.03
2019-02-25T09:59:30.842Z,48.30
2019-02-25T10:02:01.957Z,47.10
2019-02-25T10:04:32.634Z,35.77
2019-02-25T10:07:03.412Z,41.70
2019-02-25T10:09:34.298Z,43.43
2019-02-25T10:12:05.346Z,37.30
2019-02-25T10:14:36.444Z,49.67
2019-02-25T10:17:07.336Z,41.67
2019-02-25T10:19:38.043Z,37.63
2019-02-25T10:22:08.726Z,35.67
2019-02-25T10:24:39.989Z,35.43
2019-02-25T10:27:10.584Z,38.93
2019-02-25T10:29:41.548Z,36.67
2019-02-25T10:32:12.664Z,39.03
2019-02-25T10:34:43.266Z,37.53
2019-02-25T10:37:15.612Z,34.03
2019-02-25T10:39:47.942Z,33.20
2019-02-25T10:42:19.071Z,32.30
2019-02-25T10:44:49.863Z,33.67
2019-02-25T10:47:21.450Z,45.17
2019-02-25T10:49:52.351Z,50.37
2019-02-25T10:52:23.248Z,43.97
2019-02-25T10:54:56.273Z,42.30
2019-02-25T10:57:29.202Z,33.80
2019-02-25T11:00:02.732Z,34.13
2019-02-25T11:02:43.870Z,30.47
2019-02-25T11:05:07.261Z,34.43
2019-02-25T11:07:39.850Z,34.47
2019-02-25T11:10:27.929Z,37.73
2019-02-25T11:12:59.907Z,35.53
2019-02-25T11:15:32.675Z,41.17
2019-02-25T11:18:03.645Z,59.93
2019-02-25T11:20:35.888Z,38.37
2019-02-25T11:23:07.601Z,31.33
2019-02-25T11:25:38.299Z,36.20
2019-02-25T11:28:11.252Z,38.23
2019-02-25T11:30:43.144Z,33.33
2019-02-25T11:33:13.628Z,34.00
2019-02-25T11:35:45.818Z,29.00
2019-02-25T11:38:17.041Z,30.00
2019-02-25T11:40:47.903Z,31.60
2019-02-25T11:43:21.400Z,47.30
2019-02-25T11:45:51.304Z,39.23
2019-02-25T11:48:26.218Z,29.93
2019-02-25T11:50:57.496Z,36.10
2019-02-25T11:53:28.354Z,47.40
2019-02-25T11:55:59.940Z,33.13
2019-02-25T11:58:30.678Z,41.93
2019-02-25T12:01:01.237Z,42.30
2019-02-25T12:03:34.050Z,44.13
2019-02-25T12:06:04.858Z,38.67
2019-02-25T12:08:35.506Z,47.53
2019-02-25T12:11:06.352Z,57.20
2019-02-25T12:13:36.825Z,48.17
2019-02-25T12:16:07.966Z,48.90
2019-02-25T12:18:38.683Z,47.40
2019-02-25T12:21:09.522Z,47.37
2019-02-25T12:23:40.625Z,49.93
2019-02-25T12:26:11.557Z,48.83
2019-02-25T12:28:42.217Z,45.57
2019-02-25T12:31:13.223Z,52.23
2019-02-25T12:33:43.931Z,66.50
2019-02-25T12:36:14.794Z,69.07
2019-02-25T12:38:45.626Z,47.27
2019-02-25T12:41:16.187Z,54.27
2019-02-25T12:43:46.718Z,53.57
2019-02-25T12:46:17.425Z,72.07
2019-02-25T12:48:48.193Z,40.60
2019-02-25T12:51:18.897Z,35.23
2019-02-25T12:53:49.737Z,44.07
2019-02-25T12:56:20.643Z,63.00
2019-02-25T12:58:51.457Z,40.97
2019-02-25T13:01:22.376Z,42.73
2019-02-25T13:03:53.071Z,39.87
2019-02-25T13:06:24.127Z,41.03
2019-02-25T13:08:54.894Z,40.20
2019-02-25T13:11:25.782Z,40.60
2019-02-25T13:13:57.417Z,45.30
2019-02-25T13:19:55.203Z,43.33
2019-02-25T13:22:25.900Z,53.73
2019-02-25T13:24:56.431Z,50.73
2019-02-25T13:27:27.428Z,54.10
2019-02-25T13:29:57.932Z,45.00
2019-02-25T13:32:28.853Z,41.30
2019-02-25T13:34:59.774Z,43.23
2019-02-25T13:37:30.930Z,44.93
2019-02-25T13:40:01.655Z,64.83
2019-02-25T13:42:33.628Z,48.47
2019-02-25T13:45:05.516Z,47.10
2019-02-25T13:47:36.511Z,56.63
2019-02-25T13:50:09.943Z,71.43
2019-02-25T13:52:47.993Z,78.50
2019-02-25T13:55:13.955Z,76.17
2019-02-25T13:57:44.851Z,64.27
2019-02-25T14:00:19.644Z,66.43
2019-02-25T14:02:50.457Z,62.87
2019-02-25T14:05:21.618Z,68.83
2019-02-25T14:07:52.712Z,57.33
2019-02-25T14:10:23.953Z,69.47
2019-02-25T14:12:54.660Z,64.53
2019-02-25T14:15:25.816Z,78.50
2019-02-25T14:17:56.789Z,69.13
2019-02-25T14:20:27.979Z,68.87
2019-02-25T14:23:00.611Z,65.77
2019-02-25T14:25:31.389Z,84.63
2019-02-25T14:28:03.011Z,70.73
2019-02-25T14:30:34.824Z,70.27
2019-02-25T14:33:07.880Z,74.33
2019-02-25T14:35:38.680Z,64.97
2019-02-25T14:38:15.313Z,75.30
2019-02-25T14:40:44.887Z,80.50
2019-02-25T14:43:17.260Z,78.93
2019-02-25T14:45:53.120Z,74.77
2019-02-25T14:48:21.058Z,83.57
2019-02-25T14:50:53.028Z,87.40
2019-02-25T14:53:24.129Z,83.57
2019-02-25T14:55:56.048Z,87.87
2019-02-25T14:58:31.362Z,94.03
2019-02-25T15:01:00.805Z,91.30
2019-02-25T15:03:31.858Z,92.77
2019-02-25T15:06:02.769Z,80.00
2019-02-25T15:08:33.517Z,81.70
2019-02-25T15:11:13.371Z,91.33
2019-02-25T15:13:44.596Z,84.40
2019-02-25T15:16:15.437Z,90.90
2019-02-25T15:18:46.500Z,93.73
2019-02-25T15:21:17.366Z,95.23
2019-02-25T15:23:47.893Z,98.47
2019-02-25T15:26:19.907Z,90.77
2019-02-25T15:28:56.069Z,90.50
2019-02-25T15:31:25.107Z,94.77
2019-02-25T15:33:55.906Z,96.10
2019-02-25T15:36:27.049Z,98.13
2019-02-25T15:38:59.067Z,93.83
2019-02-25T15:41:29.863Z,93.83
2019-02-25T15:44:02.290Z,95.00
2019-02-25T15:46:33.549Z,91.83
2019-02-25T15:49:04.385Z,92.77
2019-02-25T15:51:37.088Z,79.27
2019-02-25T15:54:07.727Z,87.47
2019-02-25T15:56:38.329Z,92.20
2019-02-25T15:59:09.082Z,99.30
2019-02-25T16:01:40.087Z,104.77
2019-02-25T16:04:11.806Z,108.90
2019-02-25T16:06:43.676Z,103.07
2019-02-25T16:09:19.268Z,107.80
2019-02-25T16:11:49.673Z,107.83
2019-02-25T16:14:23.032Z,103.17
2019-02-25T16:16:53.605Z,106.30
2019-02-25T16:19:24.884Z,115.70
2019-02-25T16:21:56.808Z,113.83
2019-02-25T16:24:27.908Z,116.83
2019-02-25T16:27:00.094Z,116.87
2019-02-25T16:29:31.059Z,107.77
2019-02-25T16:32:02.057Z,112.30
2019-02-25T16:34:35.753Z,116.33
2019-02-25T16:37:06.435Z,115.23
2019-02-25T16:39:37.137Z,116.53
2019-02-25T16:42:08.003Z,104.57
2019-02-25T16:44:39.532Z,117.07
2019-02-25T16:47:11.791Z,123.53
2019-02-25T16:49:43.264Z,127.97
2019-02-25T16:52:15.753Z,120.57
2019-02-25T16:54:46.603Z,132.73
2019-02-25T16:57:18.578Z,130.33
2019-02-25T16:59:49.272Z,139.57
2019-02-25T17:02:19.968Z,126.27
2019-02-25T17:04:50.742Z,130.37
2019-02-25T17:07:22.696Z,142.07
2019-02-25T17:09:54.879Z,136.83
2019-02-25T17:12:27.482Z,146.27
2019-02-25T17:14:59.351Z,149.13
2019-02-25T17:17:30.283Z,137.80
2019-02-25T17:20:01.490Z,143.30
2019-02-25T17:22:32.729Z,138.17
2019-02-25T17:25:07.623Z,133.73
2019-02-25T17:27:37.717Z,128.77
2019-02-25T17:30:12.678Z,133.03
2019-02-25T17:32:46.112Z,123.00
2019-02-25T17:35:19.044Z,123.33
2019-02-25T17:37:49.874Z,116.57
2019-02-25T17:40:20.897Z,121.87
2019-02-25T17:42:54.024Z,119.97
2019-02-25T17:45:27.260Z,117.30
2019-02-25T17:47:58.319Z,119.33
2019-02-25T17:50:30.669Z,124.00
2019-02-25T17:53:03.010Z,110.57
2019-02-25T17:55:36.295Z,112.60
2019-02-25T17:58:07.680Z,117.83
2019-02-25T18:00:42.315Z,115.37
2019-02-25T18:03:13.008Z,111.63
2019-02-25T18:05:45.108Z,121.73
2019-02-25T18:08:16.215Z,127.67
2019-02-25T18:10:47.515Z,127.93
2019-02-25T18:13:19.148Z,133.30
2019-02-25T18:15:51.485Z,110.87
2019-02-25T18:18:24.984Z,128.23
2019-02-25T18:20:55.670Z,124.50
2019-02-25T18:23:26.658Z,119.43
2019-02-25T18:25:58.825Z,118.23
2019-02-25T18:28:29.558Z,116.53
2019-02-25T18:31:01.760Z,119.13
2019-02-25T18:33:33.383Z,122.70
2019-02-25T18:36:06.615Z,122.20
2019-02-25T18:38:37.508Z,131.53
2019-02-25T18:41:09.240Z,120.07
2019-02-25T18:43:40.051Z,123.63
2019-02-25T18:46:11.029Z,124.17
2019-02-25T18:48:44.565Z,138.70
2019-02-25T18:51:15.616Z,137.57
2019-02-25T18:53:46.612Z,123.27
2019-02-25T18:56:18.937Z,120.53
2019-02-25T18:58:51.368Z,124.00
2019-02-25T19:01:22.894Z,123.60
2019-02-25T19:03:54.837Z,136.73
2019-02-25T19:06:26.617Z,129.87
2019-02-25T19:08:58.599Z,124.17
2019-02-25T19:11:29.667Z,119.70
2019-02-25T19:14:03.180Z,130.37
2019-02-25T19:16:33.460Z,130.37
2019-02-25T19:19:12.348Z,128.67
2019-02-25T19:21:49.832Z,122.23
2019-02-25T19:24:21.347Z,128.63
2019-02-25T19:26:53.365Z,134.50
2019-02-25T19:29:25.986Z,141.13
2019-02-25T19:32:00.689Z,140.20
2019-02-25T19:34:31.782Z,134.37
2019-02-25T19:37:04.532Z,154.90
2019-02-25T19:39:35.378Z,141.33
2019-02-25T19:42:08.824Z,153.83
2019-02-25T19:44:39.484Z,134.33
2019-02-25T19:47:11.940Z,144.37
2019-02-25T19:49:44.072Z,143.83
2019-02-25T19:52:16.798Z,138.10
2019-02-25T19:54:48.888Z,137.33
2019-02-25T19:57:21.663Z,131.17
2019-02-25T19:59:55.459Z,133.63
2019-02-25T20:02:27.213Z,127.77
2019-02-25T20:04:59.069Z,140.13
2019-02-25T20:07:33.260Z,136.37
2019-02-25T20:10:04.564Z,134.93
2019-02-25T20:12:36.420Z,144.00
2019-02-25T20:15:11.372Z,143.37
2019-02-25T20:17:44.156Z,135.30
2019-02-25T20:20:15.988Z,142.40
2019-02-25T20:22:46.853Z,151.97
2019-02-25T20:25:19.391Z,150.27
2019-02-25T20:27:50.863Z,150.27
2019-02-25T20:30:23.628Z,147.10
2019-02-25T20:32:55.114Z,147.87
2019-02-25T20:35:27.265Z,149.27
2019-02-25T20:38:00.412Z,164.80
2019-02-25T20:40:33.010Z,150.30
2019-02-25T20:43:04.135Z,160.30
2019-02-25T20:45:35.431Z,140.43
2019-02-25T20:48:06.935Z,161.63
2019-02-25T20:50:37.771Z,158.50
2019-02-25T20:53:10.924Z,155.03
2019-02-25T20:55:41.092Z,156.20
2019-02-25T20:58:13.979Z,162.40
2019-02-25T21:00:46.539Z,150.77
2019-02-25T21:03:20.715Z,149.83
2019-02-25T21:05:51.072Z,146.33
2019-02-25T21:08:23.544Z,152.53
2019-02-25T21:10:54.325Z,161.80
2019-02-25T21:13:28.426Z,156.10
2019-02-25T21:15:58.307Z,160.90
2019-02-25T21:18:31.018Z,168.67
2019-02-25T21:21:01.735Z,167.10
2019-02-25T21:23:32.620Z,180.33
2019-02-25T21:26:06.314Z,161.93
2019-02-25T21:28:36.501Z,150.97
2019-02-25T21:31:13.556Z,151.43
2019-02-25T21:33:44.838Z,165.73
2019-02-25T21:36:14.272Z,156.27
2019-02-25T21:38:46.982Z,154.63
2019-02-25T21:41:17.684Z,158.77
2019-02-25T21:43:49.424Z,139.27
2019-02-25T21:46:22.471Z,148.50
2019-02-25T21:48:55.021Z,144.40
2019-02-25T21:51:28.117Z,139.33
2019-02-25T21:53:59.992Z,142.63
2019-02-25T21:56:30.831Z,154.07
2019-02-25T21:59:01.435Z,139.77
2019-02-25T22:01:32.738Z,140.07
2019-02-25T22:04:04.873Z,131.07
2019-02-25T22:06:35.475Z,134.23
2019-02-25T22:09:08.083Z,133.90
2019-02-25T22:11:40.697Z,134.17
2019-02-25T22:14:12.243Z,128.03
2019-02-25T22:16:45.098Z,135.27
2019-02-25T22:19:16.515Z,136.40
2019-02-25T22:21:51.600Z,148.40
2019-02-25T22:24:24.756Z,129.43
2019-02-25T22:26:54.289Z,125.13
2019-02-25T22:29:25.937Z,127.03
2019-02-25T22:31:56.673Z,133.83
2019-02-25T22:34:27.310Z,139.03
2019-02-25T22:36:58.155Z,122.63
2019-02-25T22:39:30.239Z,138.57
2019-02-25T22:42:03.131Z,135.40
2019-02-25T22:44:33.874Z,141.40
2019-02-25T22:47:07.131Z,144.97
2019-02-25T22:49:37.087Z,141.03
2019-02-25T22:52:07.821Z,142.70
2019-02-25T22:54:41.065Z,147.20
2019-02-25T22:57:10.942Z,134.63
2019-02-25T22:59:41.818Z,132.40
2019-02-25T23:02:12.803Z,147.03
2019-02-25T23:04:45.158Z,130.70
2019-02-25T23:07:17.572Z,140.10
2019-02-25T23:09:49.868Z,137.17
2019-02-25T23:12:21.787Z,128.07
2019-02-25T23:14:54.346Z,136.10
2019-02-25T23:17:24.981Z,143.60
2019-02-25T23:19:57.801Z,138.30
2019-02-25T23:22:30.099Z,135.63
2019-02-25T23:25:01.226Z,129.30
2019-02-25T23:27:34.445Z,134.00
2019-02-25T23:30:08.390Z,136.53
2019-02-25T23:32:39.477Z,128.67
2019-02-25T23:35:13.612Z,119.77
2019-02-25T23:37:45.094Z,134.47
2019-02-25T23:40:16.651Z,129.27
2019-02-25T23:42:49.122Z,123.13
2019-02-25T23:45:21.223Z,132.17
2019-02-25T23:47:55.363Z,130.53
2019-02-25T23:50:27.428Z,116.67
2019-02-25T23:52:57.946Z,124.83
2019-02-25T23:55:29.657Z,121.63
2019-02-25T23:58:00.441Z,127.77
